sensor_id;sensor_type;location;lat;lon;timestamp;P1;durP1;ratioP1;P2;durP2;ratioP2
10295;SDS011;5193;51.032;6.356;2023-05-31T00:01:08;7.20;;;5.30;;
10295;SDS011;5193;51.032;6.356;2023-05-31T00:03:33;10.90;;;5.60;;
10295;SDS011;5193;51.032;6.356;2023-05-31T00:06:00;8.90;;;5.27;;
10295;SDS011;5193;51.032;6.356;2023-05-31T00:08:26;7.63;;;5.60;;
10295;SDS011;5193;51.032;6.356;2023-05-31T00:10:51;6.70;;;5.00;;
10295;SDS011;5193;51.032;6.356;2023-05-31T00:13:17;6.73;;;5.13;;
10295;SDS011;5193;51.032;6.356;2023-05-31T00:15:42;12.87;;;5.93;;
10295;SDS011;5193;51.032;6.356;2023-05-31T00:18:08;7.90;;;5.37;;
10295;SDS011;5193;51.032;6.356;2023-05-31T00:20:33;10.70;;;5.43;;
10295;SDS011;5193;51.032;6.356;2023-05-31T00:22:59;10.53;;;6.13;;
10295;SDS011;5193;51.032;6.356;2023-05-31T00:25:25;10.70;;;5.87;;
10295;SDS011;5193;51.032;6.356;2023-05-31T00:27:51;9.23;;;6.37;;
10295;SDS011;5193;51.032;6.356;2023-05-31T00:30:16;8.40;;;6.10;;
10295;SDS011;5193;51.032;6.356;2023-05-31T00:32:42;8.27;;;6.00;;
10295;SDS011;5193;51.032;6.356;2023-05-31T00:35:08;10.10;;;5.93;;
10295;SDS011;5193;51.032;6.356;2023-05-31T00:37:33;8.53;;;5.50;;
10295;SDS011;5193;51.032;6.356;2023-05-31T00:40:05;9.10;;;5.57;;
10295;SDS011;5193;51.032;6.356;2023-05-31T00:42:31;10.13;;;5.73;;
10295;SDS011;5193;51.032;6.356;2023-05-31T00:44:57;8.43;;;6.00;;
10295;SDS011;5193;51.032;6.356;2023-05-31T00:47:23;8.80;;;5.53;;
10295;SDS011;5193;51.032;6.356;2023-05-31T00:49:50;8.70;;;6.07;;
10295;SDS011;5193;51.032;6.356;2023-05-31T00:52:17;10.40;;;6.20;;
10295;SDS011;5193;51.032;6.356;2023-05-31T00:54:43;9.33;;;6.60;;
10295;SDS011;5193;51.032;6.356;2023-05-31T00:57:09;8.47;;;6.03;;
10295;SDS011;5193;51.032;6.356;2023-05-31T00:59:35;8.30;;;5.97;;
10295;SDS011;5193;51.032;6.356;2023-05-31T01:02:01;7.27;;;5.67;;
10295;SDS011;5193;51.032;6.356;2023-05-31T01:04:29;9.83;;;6.30;;
10295;SDS011;5193;51.032;6.356;2023-05-31T01:06:55;10.10;;;6.33;;
10295;SDS011;5193;51.032;6.356;2023-05-31T01:09:21;10.67;;;6.00;;
10295;SDS011;5193;51.032;6.356;2023-05-31T01:11:56;13.73;;;5.93;;
10295;SDS011;5193;51.032;6.356;2023-05-31T01:14:57;7.33;;;5.93;;
10295;SDS011;5193;51.032;6.356;2023-05-31T01:17:41;10.53;;;6.70;;
10295;SDS011;5193;51.032;6.356;2023-05-31T01:20:32;9.73;;;6.80;;
10295;SDS011;5193;51.032;6.356;2023-05-31T01:25:57;10.83;;;6.70;;
10295;SDS011;5193;51.032;6.356;2023-05-31T01:28:44;8.50;;;6.33;;
10295;SDS011;5193;51.032;6.356;2023-05-31T01:31:16;9.77;;;7.03;;
10295;SDS011;5193;51.032;6.356;2023-05-31T01:33:44;9.13;;;6.07;;
10295;SDS011;5193;51.032;6.356;2023-05-31T01:36:11;10.93;;;6.43;;
10295;SDS011;5193;51.032;6.356;2023-05-31T01:38:37;8.27;;;6.13;;
10295;SDS011;5193;51.032;6.356;2023-05-31T01:41:02;8.47;;;5.90;;
10295;SDS011;5193;51.032;6.356;2023-05-31T01:43:32;10.20;;;6.00;;
10295;SDS011;5193;51.032;6.356;2023-05-31T01:45:59;10.67;;;6.70;;
10295;SDS011;5193;51.032;6.356;2023-05-31T01:48:26;8.50;;;6.07;;
10295;SDS011;5193;51.032;6.356;2023-05-31T01:50:53;12.17;;;7.47;;
10295;SDS011;5193;51.032;6.356;2023-05-31T01:53:20;9.90;;;6.47;;
10295;SDS011;5193;51.032;6.356;2023-05-31T01:55:46;9.27;;;6.50;;
10295;SDS011;5193;51.032;6.356;2023-05-31T01:58:13;10.87;;;7.23;;
10295;SDS011;5193;51.032;6.356;2023-05-31T02:00:40;9.53;;;7.03;;
10295;SDS011;5193;51.032;6.356;2023-05-31T02:03:06;8.33;;;6.43;;
10295;SDS011;5193;51.032;6.356;2023-05-31T02:05:32;11.40;;;6.40;;
10295;SDS011;5193;51.032;6.356;2023-05-31T02:07:58;11.50;;;6.70;;
10295;SDS011;5193;51.032;6.356;2023-05-31T02:10:23;13.63;;;7.00;;
10295;SDS011;5193;51.032;6.356;2023-05-31T02:12:49;12.23;;;7.27;;
10295;SDS011;5193;51.032;6.356;2023-05-31T02:15:19;9.93;;;7.23;;
10295;SDS011;5193;51.032;6.356;2023-05-31T02:17:46;9.90;;;6.77;;
10295;SDS011;5193;51.032;6.356;2023-05-31T02:20:15;9.10;;;6.97;;
10295;SDS011;5193;51.032;6.356;2023-05-31T02:22:43;11.30;;;7.47;;
10295;SDS011;5193;51.032;6.356;2023-05-31T02:25:09;10.23;;;7.33;;
10295;SDS011;5193;51.032;6.356;2023-05-31T02:27:36;9.43;;;7.40;;
10295;SDS011;5193;51.032;6.356;2023-05-31T02:30:03;12.57;;;7.27;;
10295;SDS011;5193;51.032;6.356;2023-05-31T02:32:30;11.03;;;7.27;;
10295;SDS011;5193;51.032;6.356;2023-05-31T02:35:00;11.03;;;7.30;;
10295;SDS011;5193;51.032;6.356;2023-05-31T02:37:28;12.10;;;7.07;;
10295;SDS011;5193;51.032;6.356;2023-05-31T02:39:55;10.63;;;7.70;;
10295;SDS011;5193;51.032;6.356;2023-05-31T02:42:20;12.13;;;7.00;;
10295;SDS011;5193;51.032;6.356;2023-05-31T02:44:46;10.27;;;7.67;;
10295;SDS011;5193;51.032;6.356;2023-05-31T02:47:12;11.03;;;7.43;;
10295;SDS011;5193;51.032;6.356;2023-05-31T02:49:37;11.70;;;7.33;;
10295;SDS011;5193;51.032;6.356;2023-05-31T02:52:03;11.50;;;8.00;;
10295;SDS011;5193;51.032;6.356;2023-05-31T02:54:29;9.93;;;7.63;;
10295;SDS011;5193;51.032;6.356;2023-05-31T02:56:54;14.60;;;7.53;;
10295;SDS011;5193;51.032;6.356;2023-05-31T02:59:20;12.60;;;7.40;;
10295;SDS011;5193;51.032;6.356;2023-05-31T03:01:45;11.57;;;7.50;;
10295;SDS011;5193;51.032;6.356;2023-05-31T03:04:11;9.23;;;6.97;;
10295;SDS011;5193;51.032;6.356;2023-05-31T03:06:36;12.63;;;7.77;;
10295;SDS011;5193;51.032;6.356;2023-05-31T03:09:04;11.03;;;7.70;;
10295;SDS011;5193;51.032;6.356;2023-05-31T03:11:31;9.80;;;7.80;;
10295;SDS011;5193;51.032;6.356;2023-05-31T03:13:56;12.03;;;8.03;;
10295;SDS011;5193;51.032;6.356;2023-05-31T03:16:22;10.50;;;7.43;;
10295;SDS011;5193;51.032;6.356;2023-05-31T03:18:48;11.93;;;8.13;;
10295;SDS011;5193;51.032;6.356;2023-05-31T03:21:13;12.33;;;8.47;;
10295;SDS011;5193;51.032;6.356;2023-05-31T03:23:40;15.17;;;8.63;;
10295;SDS011;5193;51.032;6.356;2023-05-31T03:26:06;13.30;;;8.23;;
10295;SDS011;5193;51.032;6.356;2023-05-31T03:28:31;10.67;;;8.33;;
10295;SDS011;5193;51.032;6.356;2023-05-31T03:30:57;11.73;;;8.10;;
10295;SDS011;5193;51.032;6.356;2023-05-31T03:33:23;11.07;;;8.57;;
10295;SDS011;5193;51.032;6.356;2023-05-31T03:35:48;12.23;;;8.83;;
10295;SDS011;5193;51.032;6.356;2023-05-31T03:38:14;16.23;;;9.07;;
10295;SDS011;5193;51.032;6.356;2023-05-31T03:40:40;13.23;;;9.20;;
10295;SDS011;5193;51.032;6.356;2023-05-31T03:43:05;12.77;;;8.60;;
10295;SDS011;5193;51.032;6.356;2023-05-31T03:45:31;11.77;;;8.90;;
10295;SDS011;5193;51.032;6.356;2023-05-31T03:47:57;12.63;;;8.57;;
10295;SDS011;5193;51.032;6.356;2023-05-31T03:50:22;14.37;;;8.73;;
10295;SDS011;5193;51.032;6.356;2023-05-31T03:52:48;13.03;;;9.03;;
10295;SDS011;5193;51.032;6.356;2023-05-31T03:55:13;16.13;;;8.87;;
10295;SDS011;5193;51.032;6.356;2023-05-31T03:57:39;13.07;;;7.23;;
10295;SDS011;5193;51.032;6.356;2023-05-31T04:00:05;15.13;;;9.73;;
10295;SDS011;5193;51.032;6.356;2023-05-31T04:02:31;14.53;;;8.40;;
10295;SDS011;5193;51.032;6.356;2023-05-31T04:04:57;13.33;;;8.67;;
10295;SDS011;5193;51.032;6.356;2023-05-31T04:07:22;12.50;;;9.47;;
10295;SDS011;5193;51.032;6.356;2023-05-31T04:09:48;11.77;;;8.40;;
10295;SDS011;5193;51.032;6.356;2023-05-31T04:12:14;14.53;;;9.47;;
10295;SDS011;5193;51.032;6.356;2023-05-31T04:14:40;13.40;;;8.90;;
10295;SDS011;5193;51.032;6.356;2023-05-31T04:17:05;14.57;;;8.27;;
10295;SDS011;5193;51.032;6.356;2023-05-31T04:19:31;15.17;;;9.30;;
10295;SDS011;5193;51.032;6.356;2023-05-31T04:21:56;12.80;;;9.40;;
10295;SDS011;5193;51.032;6.356;2023-05-31T04:24:22;11.33;;;8.70;;
10295;SDS011;5193;51.032;6.356;2023-05-31T04:26:48;14.23;;;9.43;;
10295;SDS011;5193;51.032;6.356;2023-05-31T04:29:13;12.80;;;9.53;;
10295;SDS011;5193;51.032;6.356;2023-05-31T04:31:39;12.67;;;9.40;;
10295;SDS011;5193;51.032;6.356;2023-05-31T04:34:05;14.10;;;9.03;;
10295;SDS011;5193;51.032;6.356;2023-05-31T04:36:31;14.97;;;9.53;;
10295;SDS011;5193;51.032;6.356;2023-05-31T04:38:57;15.23;;;10.23;;
10295;SDS011;5193;51.032;6.356;2023-05-31T04:41:23;15.57;;;9.53;;
10295;SDS011;5193;51.032;6.356;2023-05-31T04:43:51;12.40;;;9.30;;
10295;SDS011;5193;51.032;6.356;2023-05-31T04:46:18;14.07;;;9.43;;
10295;SDS011;5193;51.032;6.356;2023-05-31T04:48:44;16.37;;;10.47;;
10295;SDS011;5193;51.032;6.356;2023-05-31T04:51:12;16.83;;;10.50;;
10295;SDS011;5193;51.032;6.356;2023-05-31T04:53:38;18.03;;;11.10;;
10295;SDS011;5193;51.032;6.356;2023-05-31T04:56:04;11.63;;;9.50;;
10295;SDS011;5193;51.032;6.356;2023-05-31T04:58:32;14.93;;;10.17;;
10295;SDS011;5193;51.032;6.356;2023-05-31T05:00:58;15.40;;;10.40;;
10295;SDS011;5193;51.032;6.356;2023-05-31T05:03:25;13.10;;;9.67;;
10295;SDS011;5193;51.032;6.356;2023-05-31T05:05:51;15.97;;;10.73;;
10295;SDS011;5193;51.032;6.356;2023-05-31T05:08:17;16.83;;;11.13;;
10295;SDS011;5193;51.032;6.356;2023-05-31T05:10:43;13.77;;;10.10;;
10295;SDS011;5193;51.032;6.356;2023-05-31T05:13:08;19.03;;;11.53;;
10295;SDS011;5193;51.032;6.356;2023-05-31T05:15:35;16.30;;;10.83;;
10295;SDS011;5193;51.032;6.356;2023-05-31T05:18:01;14.87;;;10.80;;
10295;SDS011;5193;51.032;6.356;2023-05-31T05:20:27;19.13;;;11.80;;
10295;SDS011;5193;51.032;6.356;2023-05-31T05:22:53;15.50;;;10.90;;
10295;SDS011;5193;51.032;6.356;2023-05-31T05:25:19;20.67;;;11.07;;
10295;SDS011;5193;51.032;6.356;2023-05-31T05:27:46;18.33;;;11.83;;
10295;SDS011;5193;51.032;6.356;2023-05-31T05:30:12;15.33;;;10.63;;
10295;SDS011;5193;51.032;6.356;2023-05-31T05:32:38;14.37;;;10.57;;
10295;SDS011;5193;51.032;6.356;2023-05-31T05:35:04;17.17;;;10.37;;
10295;SDS011;5193;51.032;6.356;2023-05-31T05:37:31;18.03;;;11.13;;
10295;SDS011;5193;51.032;6.356;2023-05-31T05:39:56;14.83;;;10.53;;
10295;SDS011;5193;51.032;6.356;2023-05-31T05:42:24;14.93;;;11.53;;
10295;SDS011;5193;51.032;6.356;2023-05-31T05:44:50;12.77;;;10.27;;
10295;SDS011;5193;51.032;6.356;2023-05-31T05:47:16;15.03;;;9.80;;
10295;SDS011;5193;51.032;6.356;2023-05-31T05:49:42;15.53;;;10.53;;
10295;SDS011;5193;51.032;6.356;2023-05-31T05:52:07;18.43;;;10.50;;
10295;SDS011;5193;51.032;6.356;2023-05-31T05:54:33;15.10;;;9.20;;
10295;SDS011;5193;51.032;6.356;2023-05-31T05:56:58;19.13;;;9.60;;
10295;SDS011;5193;51.032;6.356;2023-05-31T05:59:24;21.60;;;9.80;;
10295;SDS011;5193;51.032;6.356;2023-05-31T06:01:50;13.90;;;9.80;;
10295;SDS011;5193;51.032;6.356;2023-05-31T06:04:15;18.30;;;9.33;;
10295;SDS011;5193;51.032;6.356;2023-05-31T06:06:41;14.70;;;9.43;;
10295;SDS011;5193;51.032;6.356;2023-05-31T06:09:06;19.70;;;9.37;;
10295;SDS011;5193;51.032;6.356;2023-05-31T06:11:32;13.80;;;7.87;;
10295;SDS011;5193;51.032;6.356;2023-05-31T06:13:58;13.17;;;7.77;;
10295;SDS011;5193;51.032;6.356;2023-05-31T06:16:23;14.23;;;8.80;;
10295;SDS011;5193;51.032;6.356;2023-05-31T06:18:49;18.90;;;8.43;;
10295;SDS011;5193;51.032;6.356;2023-05-31T06:21:15;12.17;;;7.67;;
10295;SDS011;5193;51.032;6.356;2023-05-31T06:23:41;13.20;;;7.97;;
10295;SDS011;5193;51.032;6.356;2023-05-31T06:26:06;18.57;;;8.70;;
10295;SDS011;5193;51.032;6.356;2023-05-31T06:28:32;13.60;;;7.40;;
10295;SDS011;5193;51.032;6.356;2023-05-31T06:30:58;10.10;;;7.23;;
10295;SDS011;5193;51.032;6.356;2023-05-31T06:33:25;13.37;;;7.20;;
10295;SDS011;5193;51.032;6.356;2023-05-31T06:35:51;20.20;;;8.40;;
10295;SDS011;5193;51.032;6.356;2023-05-31T06:38:16;14.03;;;8.07;;
10295;SDS011;5193;51.032;6.356;2023-05-31T06:40:43;13.27;;;7.40;;
10295;SDS011;5193;51.032;6.356;2023-05-31T06:43:09;9.80;;;7.20;;
10295;SDS011;5193;51.032;6.356;2023-05-31T06:45:35;10.43;;;7.00;;
10295;SDS011;5193;51.032;6.356;2023-05-31T06:48:02;12.93;;;7.07;;
10295;SDS011;5193;51.032;6.356;2023-05-31T06:50:28;8.47;;;6.13;;
10295;SDS011;5193;51.032;6.356;2023-05-31T06:52:54;14.77;;;6.03;;
10295;SDS011;5193;51.032;6.356;2023-05-31T06:55:20;14.90;;;6.57;;
10295;SDS011;5193;51.032;6.356;2023-05-31T06:57:45;19.23;;;7.20;;
10295;SDS011;5193;51.032;6.356;2023-05-31T07:00:11;12.30;;;7.00;;
10295;SDS011;5193;51.032;6.356;2023-05-31T07:02:37;10.00;;;6.37;;
10295;SDS011;5193;51.032;6.356;2023-05-31T07:05:03;14.43;;;6.30;;
10295;SDS011;5193;51.032;6.356;2023-05-31T07:07:28;9.17;;;5.93;;
10295;SDS011;5193;51.032;6.356;2023-05-31T07:09:54;15.97;;;6.60;;
10295;SDS011;5193;51.032;6.356;2023-05-31T07:12:20;11.73;;;6.30;;
10295;SDS011;5193;51.032;6.356;2023-05-31T07:14:45;12.63;;;6.23;;
10295;SDS011;5193;51.032;6.356;2023-05-31T07:17:11;15.13;;;6.43;;
10295;SDS011;5193;51.032;6.356;2023-05-31T07:19:42;16.13;;;5.70;;
10295;SDS011;5193;51.032;6.356;2023-05-31T07:22:09;11.13;;;6.50;;
10295;SDS011;5193;51.032;6.356;2023-05-31T07:24:35;10.83;;;6.40;;
10295;SDS011;5193;51.032;6.356;2023-05-31T07:27:00;12.13;;;6.07;;
10295;SDS011;5193;51.032;6.356;2023-05-31T07:29:26;16.10;;;5.70;;
10295;SDS011;5193;51.032;6.356;2023-05-31T07:31:51;14.53;;;5.73;;
10295;SDS011;5193;51.032;6.356;2023-05-31T07:34:17;9.40;;;5.00;;
10295;SDS011;5193;51.032;6.356;2023-05-31T07:36:42;11.63;;;5.57;;
10295;SDS011;5193;51.032;6.356;2023-05-31T07:39:08;13.87;;;5.93;;
10295;SDS011;5193;51.032;6.356;2023-05-31T07:41:35;10.50;;;5.03;;
10295;SDS011;5193;51.032;6.356;2023-05-31T07:44:02;15.30;;;5.23;;
10295;SDS011;5193;51.032;6.356;2023-05-31T07:46:28;15.63;;;5.87;;
10295;SDS011;5193;51.032;6.356;2023-05-31T07:48:53;13.00;;;5.83;;
10295;SDS011;5193;51.032;6.356;2023-05-31T07:51:19;12.63;;;4.80;;
10295;SDS011;5193;51.032;6.356;2023-05-31T07:53:45;13.57;;;5.10;;
10295;SDS011;5193;51.032;6.356;2023-05-31T07:56:11;12.00;;;4.73;;
10295;SDS011;5193;51.032;6.356;2023-05-31T07:58:38;15.93;;;5.40;;
10295;SDS011;5193;51.032;6.356;2023-05-31T08:01:03;13.83;;;4.90;;
10295;SDS011;5193;51.032;6.356;2023-05-31T08:03:29;11.10;;;5.40;;
10295;SDS011;5193;51.032;6.356;2023-05-31T08:05:56;17.27;;;4.80;;
10295;SDS011;5193;51.032;6.356;2023-05-31T08:08:22;8.80;;;4.73;;
10295;SDS011;5193;51.032;6.356;2023-05-31T08:10:48;10.07;;;4.57;;
10295;SDS011;5193;51.032;6.356;2023-05-31T08:13:13;15.93;;;5.63;;
10295;SDS011;5193;51.032;6.356;2023-05-31T08:15:39;10.70;;;5.10;;
10295;SDS011;5193;51.032;6.356;2023-05-31T08:18:04;9.70;;;4.90;;
10295;SDS011;5193;51.032;6.356;2023-05-31T08:20:30;16.37;;;5.30;;
10295;SDS011;5193;51.032;6.356;2023-05-31T08:22:56;9.87;;;4.33;;
10295;SDS011;5193;51.032;6.356;2023-05-31T08:25:22;12.17;;;4.80;;
10295;SDS011;5193;51.032;6.356;2023-05-31T08:27:48;9.37;;;4.47;;
10295;SDS011;5193;51.032;6.356;2023-05-31T08:30:15;11.87;;;4.27;;
10295;SDS011;5193;51.032;6.356;2023-05-31T08:32:41;18.60;;;4.50;;
10295;SDS011;5193;51.032;6.356;2023-05-31T08:35:07;11.07;;;4.40;;
10295;SDS011;5193;51.032;6.356;2023-05-31T08:37:35;13.03;;;4.63;;
10295;SDS011;5193;51.032;6.356;2023-05-31T08:40:01;7.87;;;3.73;;
10295;SDS011;5193;51.032;6.356;2023-05-31T08:42:30;13.43;;;5.33;;
10295;SDS011;5193;51.032;6.356;2023-05-31T08:45:05;10.37;;;4.53;;
10295;SDS011;5193;51.032;6.356;2023-05-31T08:47:38;10.03;;;3.93;;
10295;SDS011;5193;51.032;6.356;2023-05-31T08:50:08;9.77;;;5.00;;
10295;SDS011;5193;51.032;6.356;2023-05-31T08:52:35;9.13;;;4.03;;
10295;SDS011;5193;51.032;6.356;2023-05-31T08:55:01;12.63;;;4.10;;
10295;SDS011;5193;51.032;6.356;2023-05-31T08:57:29;10.77;;;4.57;;
10295;SDS011;5193;51.032;6.356;2023-05-31T08:59:56;11.20;;;4.47;;
10295;SDS011;5193;51.032;6.356;2023-05-31T09:02:22;10.87;;;3.67;;
10295;SDS011;5193;51.032;6.356;2023-05-31T09:04:50;6.20;;;3.77;;
10295;SDS011;5193;51.032;6.356;2023-05-31T09:07:16;10.63;;;4.10;;
10295;SDS011;5193;51.032;6.356;2023-05-31T09:09:42;8.70;;;4.10;;
10295;SDS011;5193;51.032;6.356;2023-05-31T09:12:08;4.97;;;3.37;;
10295;SDS011;5193;51.032;6.356;2023-05-31T09:14:33;9.30;;;4.17;;
10295;SDS011;5193;51.032;6.356;2023-05-31T09:16:59;11.13;;;3.77;;
10295;SDS011;5193;51.032;6.356;2023-05-31T09:19:25;12.43;;;4.00;;
10295;SDS011;5193;51.032;6.356;2023-05-31T09:21:51;8.03;;;4.03;;
10295;SDS011;5193;51.032;6.356;2023-05-31T09:24:17;9.97;;;3.70;;
10295;SDS011;5193;51.032;6.356;2023-05-31T09:26:48;10.27;;;3.23;;
10295;SDS011;5193;51.032;6.356;2023-05-31T09:29:15;5.87;;;3.03;;
10295;SDS011;5193;51.032;6.356;2023-05-31T09:31:42;5.83;;;3.10;;
10295;SDS011;5193;51.032;6.356;2023-05-31T09:34:22;6.67;;;3.27;;
10295;SDS011;5193;51.032;6.356;2023-05-31T09:37:00;9.20;;;2.90;;
10295;SDS011;5193;51.032;6.356;2023-05-31T09:39:26;8.07;;;3.27;;
10295;SDS011;5193;51.032;6.356;2023-05-31T09:41:52;8.37;;;3.37;;
10295;SDS011;5193;51.032;6.356;2023-05-31T09:44:18;5.30;;;2.77;;
10295;SDS011;5193;51.032;6.356;2023-05-31T09:46:44;12.60;;;3.30;;
10295;SDS011;5193;51.032;6.356;2023-05-31T09:49:11;12.77;;;2.70;;
10295;SDS011;5193;51.032;6.356;2023-05-31T09:51:37;6.73;;;3.47;;
10295;SDS011;5193;51.032;6.356;2023-05-31T09:54:09;6.13;;;2.80;;
10295;SDS011;5193;51.032;6.356;2023-05-31T09:56:37;6.93;;;2.97;;
10295;SDS011;5193;51.032;6.356;2023-05-31T09:59:05;9.67;;;2.70;;
10295;SDS011;5193;51.032;6.356;2023-05-31T10:01:32;4.43;;;2.10;;
10295;SDS011;5193;51.032;6.356;2023-05-31T10:03:59;3.53;;;2.43;;
10295;SDS011;5193;51.032;6.356;2023-05-31T10:06:28;5.87;;;2.73;;
10295;SDS011;5193;51.032;6.356;2023-05-31T10:08:53;8.23;;;2.93;;
10295;SDS011;5193;51.032;6.356;2023-05-31T10:11:19;5.00;;;2.30;;
10295;SDS011;5193;51.032;6.356;2023-05-31T10:13:50;6.17;;;3.00;;
10295;SDS011;5193;51.032;6.356;2023-05-31T10:16:20;6.90;;;2.50;;
10295;SDS011;5193;51.032;6.356;2023-05-31T10:18:50;7.88;;;2.80;;
10295;SDS011;5193;51.032;6.356;2023-05-31T10:21:18;9.07;;;3.65;;
10295;SDS011;5193;51.032;6.356;2023-05-31T10:26:35;11.02;;;2.78;;
10295;SDS011;5193;51.032;6.356;2023-05-31T10:29:22;8.45;;;2.70;;
10295;SDS011;5193;51.032;6.356;2023-05-31T10:31:51;5.32;;;2.78;;
10295;SDS011;5193;51.032;6.356;2023-05-31T10:36:45;5.05;;;2.70;;
10295;SDS011;5193;51.032;6.356;2023-05-31T10:39:35;6.80;;;2.78;;
10295;SDS011;5193;51.032;6.356;2023-05-31T10:45:04;9.70;;;3.38;;
10295;SDS011;5193;51.032;6.356;2023-05-31T10:50:57;6.35;;;2.65;;
10295;SDS011;5193;51.032;6.356;2023-05-31T10:53:30;11.07;;;2.35;;
10295;SDS011;5193;51.032;6.356;2023-05-31T10:56:09;7.15;;;3.13;;
10295;SDS011;5193;51.032;6.356;2023-05-31T10:58:37;5.90;;;2.40;;
10295;SDS011;5193;51.032;6.356;2023-05-31T11:01:07;9.32;;;3.00;;
10295;SDS011;5193;51.032;6.356;2023-05-31T11:03:36;7.18;;;2.78;;
10295;SDS011;5193;51.032;6.356;2023-05-31T11:06:08;5.55;;;2.40;;
10295;SDS011;5193;51.032;6.356;2023-05-31T11:08:36;6.35;;;2.67;;
10295;SDS011;5193;51.032;6.356;2023-05-31T11:14:03;4.82;;;2.30;;
10295;SDS011;5193;51.032;6.356;2023-05-31T11:16:33;4.15;;;2.10;;
10295;SDS011;5193;51.032;6.356;2023-05-31T11:19:26;4.88;;;2.33;;
10295;SDS011;5193;51.032;6.356;2023-05-31T11:21:54;7.57;;;2.65;;
10295;SDS011;5193;51.032;6.356;2023-05-31T11:26:51;7.43;;;2.42;;
10295;SDS011;5193;51.032;6.356;2023-05-31T11:29:18;6.03;;;2.45;;
10295;SDS011;5193;51.032;6.356;2023-05-31T11:36:50;7.18;;;2.70;;
10295;SDS011;5193;51.032;6.356;2023-05-31T11:39:16;5.15;;;2.17;;
10295;SDS011;5193;51.032;6.356;2023-05-31T11:41:45;9.15;;;2.90;;
10295;SDS011;5193;51.032;6.356;2023-05-31T11:44:11;9.43;;;2.67;;
10295;SDS011;5193;51.032;6.356;2023-05-31T11:46:39;3.75;;;2.00;;
10295;SDS011;5193;51.032;6.356;2023-05-31T11:49:08;6.80;;;2.58;;
10295;SDS011;5193;51.032;6.356;2023-05-31T11:51:35;3.45;;;2.20;;
10295;SDS011;5193;51.032;6.356;2023-05-31T11:54:01;10.10;;;2.42;;
10295;SDS011;5193;51.032;6.356;2023-05-31T11:56:31;4.22;;;2.28;;
10295;SDS011;5193;51.032;6.356;2023-05-31T11:59:01;7.47;;;2.10;;
10295;SDS011;5193;51.032;6.356;2023-05-31T12:01:27;7.93;;;2.63;;
10295;SDS011;5193;51.032;6.356;2023-05-31T12:03:58;8.70;;;2.90;;
10295;SDS011;5193;51.032;6.356;2023-05-31T12:06:24;6.53;;;2.33;;
10295;SDS011;5193;51.032;6.356;2023-05-31T12:08:51;5.25;;;2.40;;
10295;SDS011;5193;51.032;6.356;2023-05-31T12:11:17;3.38;;;1.90;;
10295;SDS011;5193;51.032;6.356;2023-05-31T12:13:44;4.40;;;1.80;;
10295;SDS011;5193;51.032;6.356;2023-05-31T12:16:09;5.22;;;2.40;;
10295;SDS011;5193;51.032;6.356;2023-05-31T12:18:35;4.30;;;2.28;;
10295;SDS011;5193;51.032;6.356;2023-05-31T12:21:07;6.70;;;2.40;;
10295;SDS011;5193;51.032;6.356;2023-05-31T12:26:23;4.68;;;2.33;;
10295;SDS011;5193;51.032;6.356;2023-05-31T12:28:52;10.00;;;2.50;;
10295;SDS011;5193;51.032;6.356;2023-05-31T12:31:21;3.67;;;2.38;;
10295;SDS011;5193;51.032;6.356;2023-05-31T12:33:57;4.38;;;2.20;;
10295;SDS011;5193;51.032;6.356;2023-05-31T12:36:26;4.70;;;2.15;;
10295;SDS011;5193;51.032;6.356;2023-05-31T12:38:53;4.38;;;1.90;;
10295;SDS011;5193;51.032;6.356;2023-05-31T12:41:21;3.10;;;2.05;;
10295;SDS011;5193;51.032;6.356;2023-05-31T12:43:47;5.88;;;1.98;;
10295;SDS011;5193;51.032;6.356;2023-05-31T12:46:17;8.25;;;2.40;;
10295;SDS011;5193;51.032;6.356;2023-05-31T12:48:49;5.10;;;2.22;;
10295;SDS011;5193;51.032;6.356;2023-05-31T12:51:22;5.88;;;2.10;;
10295;SDS011;5193;51.032;6.356;2023-05-31T12:53:47;5.32;;;2.45;;
10295;SDS011;5193;51.032;6.356;2023-05-31T12:56:14;4.82;;;2.28;;
10295;SDS011;5193;51.032;6.356;2023-05-31T12:58:40;5.18;;;2.15;;
10295;SDS011;5193;51.032;6.356;2023-05-31T13:01:07;5.60;;;2.00;;
10295;SDS011;5193;51.032;6.356;2023-05-31T13:03:33;9.15;;;2.17;;
10295;SDS011;5193;51.032;6.356;2023-05-31T13:05:58;7.97;;;2.72;;
10295;SDS011;5193;51.032;6.356;2023-05-31T13:08:24;6.63;;;2.10;;
10295;SDS011;5193;51.032;6.356;2023-05-31T13:10:50;3.75;;;2.20;;
10295;SDS011;5193;51.032;6.356;2023-05-31T13:13:15;5.57;;;1.80;;
10295;SDS011;5193;51.032;6.356;2023-05-31T13:15:41;7.57;;;1.98;;
10295;SDS011;5193;51.032;6.356;2023-05-31T13:18:07;8.63;;;2.75;;
10295;SDS011;5193;51.032;6.356;2023-05-31T13:20:32;9.35;;;2.60;;
10295;SDS011;5193;51.032;6.356;2023-05-31T13:22:58;7.32;;;2.22;;
10295;SDS011;5193;51.032;6.356;2023-05-31T13:25:23;9.80;;;2.58;;
10295;SDS011;5193;51.032;6.356;2023-05-31T13:27:49;3.88;;;2.10;;
10295;SDS011;5193;51.032;6.356;2023-05-31T13:30:15;5.00;;;2.22;;
10295;SDS011;5193;51.032;6.356;2023-05-31T13:32:41;8.05;;;2.17;;
10295;SDS011;5193;51.032;6.356;2023-05-31T13:35:07;6.95;;;2.40;;
10295;SDS011;5193;51.032;6.356;2023-05-31T13:37:35;3.90;;;1.88;;
10295;SDS011;5193;51.032;6.356;2023-05-31T13:40:00;5.45;;;2.00;;
10295;SDS011;5193;51.032;6.356;2023-05-31T13:42:27;4.78;;;1.77;;
10295;SDS011;5193;51.032;6.356;2023-05-31T13:44:52;6.65;;;2.38;;
10295;SDS011;5193;51.032;6.356;2023-05-31T13:47:18;4.85;;;2.20;;
10295;SDS011;5193;51.032;6.356;2023-05-31T13:49:44;8.38;;;2.15;;
10295;SDS011;5193;51.032;6.356;2023-05-31T13:52:09;5.72;;;2.05;;
10295;SDS011;5193;51.032;6.356;2023-05-31T13:54:38;5.72;;;2.30;;
10295;SDS011;5193;51.032;6.356;2023-05-31T13:57:03;5.70;;;1.98;;
10295;SDS011;5193;51.032;6.356;2023-05-31T13:59:29;3.00;;;2.15;;
10295;SDS011;5193;51.032;6.356;2023-05-31T14:01:56;5.30;;;2.20;;
10295;SDS011;5193;51.032;6.356;2023-05-31T14:04:21;3.83;;;2.13;;
10295;SDS011;5193;51.032;6.356;2023-05-31T14:06:47;5.75;;;2.30;;
10295;SDS011;5193;51.032;6.356;2023-05-31T14:09:13;7.70;;;2.40;;
10295;SDS011;5193;51.032;6.356;2023-05-31T14:11:39;12.73;;;2.47;;
10295;SDS011;5193;51.032;6.356;2023-05-31T14:14:05;4.53;;;2.20;;
10295;SDS011;5193;51.032;6.356;2023-05-31T14:16:30;5.18;;;2.58;;
10295;SDS011;5193;51.032;6.356;2023-05-31T14:18:56;6.45;;;2.30;;
10295;SDS011;5193;51.032;6.356;2023-05-31T14:21:22;5.53;;;2.00;;
10295;SDS011;5193;51.032;6.356;2023-05-31T14:23:47;7.30;;;2.10;;
10295;SDS011;5193;51.032;6.356;2023-05-31T14:26:13;5.07;;;1.98;;
10295;SDS011;5193;51.032;6.356;2023-05-31T14:28:38;4.05;;;2.30;;
10295;SDS011;5193;51.032;6.356;2023-05-31T14:31:04;6.50;;;2.30;;
10295;SDS011;5193;51.032;6.356;2023-05-31T14:33:29;8.05;;;2.10;;
10295;SDS011;5193;51.032;6.356;2023-05-31T14:35:55;7.85;;;2.13;;
10295;SDS011;5193;51.032;6.356;2023-05-31T14:38:20;7.53;;;2.30;;
10295;SDS011;5193;51.032;6.356;2023-05-31T14:40:46;5.22;;;2.33;;
10295;SDS011;5193;51.032;6.356;2023-05-31T14:43:12;5.18;;;2.58;;
10295;SDS011;5193;51.032;6.356;2023-05-31T14:45:37;9.18;;;2.20;;
10295;SDS011;5193;51.032;6.356;2023-05-31T14:48:03;6.43;;;2.20;;
10295;SDS011;5193;51.032;6.356;2023-05-31T14:50:28;6.25;;;2.30;;
10295;SDS011;5193;51.032;6.356;2023-05-31T14:52:54;6.57;;;2.47;;
10295;SDS011;5193;51.032;6.356;2023-05-31T14:55:19;6.78;;;2.90;;
10295;SDS011;5193;51.032;6.356;2023-05-31T14:57:45;4.93;;;1.80;;
10295;SDS011;5193;51.032;6.356;2023-05-31T15:00:11;3.28;;;1.88;;
10295;SDS011;5193;51.032;6.356;2023-05-31T15:02:37;6.70;;;1.83;;
10295;SDS011;5193;51.032;6.356;2023-05-31T15:05:03;8.70;;;2.10;;
10295;SDS011;5193;51.032;6.356;2023-05-31T15:07:29;7.03;;;2.30;;
10295;SDS011;5193;51.032;6.356;2023-05-31T15:09:54;5.20;;;2.45;;
10295;SDS011;5193;51.032;6.356;2023-05-31T15:12:20;8.15;;;2.17;;
10295;SDS011;5193;51.032;6.356;2023-05-31T15:14:46;9.13;;;2.00;;
10295;SDS011;5193;51.032;6.356;2023-05-31T15:17:13;5.13;;;2.30;;
10295;SDS011;5193;51.032;6.356;2023-05-31T15:19:39;5.55;;;2.42;;